sensor_id;sensor_type;location;lat;lon;timestamp;P1;durP1;ratioP1;P2;durP2;ratioP2
14300;SDS011;7234;59.306;18.024;2023-05-02T15:48:15;0.50;;;0.50;;
14300;SDS011;7234;59.306;18.024;2023-05-02T15:50:42;0.50;;;0.50;;
14300;SDS011;7234;59.306;18.024;2023-05-02T15:53:11;0.60;;;0.50;;
14300;SDS011;7234;59.306;18.024;2023-05-02T15:55:42;1.33;;;0.88;;
14300;SDS011;7234;59.306;18.024;2023-05-02T15:58:13;3.22;;;0.82;;
14300;SDS011;7234;59.306;18.024;2023-05-02T16:00:45;0.47;;;0.47;;
14300;SDS011;7234;59.306;18.024;2023-05-02T16:06:41;1.17;;;0.73;;
14300;SDS011;7234;59.306;18.024;2023-05-02T16:09:09;0.98;;;0.65;;
14300;SDS011;7234;59.306;18.024;2023-05-02T16:11:39;1.58;;;0.40;;
14300;SDS011;7234;59.306;18.024;2023-05-02T16:14:12;3.20;;;0.90;;
14300;SDS011;7234;59.306;18.024;2023-05-02T16:16:40;0.95;;;0.80;;
14300;SDS011;7234;59.306;18.024;2023-05-02T16:19:09;3.13;;;1.00;;
14300;SDS011;7234;59.306;18.024;2023-05-02T16:21:45;2.65;;;0.60;;
14300;SDS011;7234;59.306;18.024;2023-05-02T16:24:25;2.88;;;0.57;;
14300;SDS011;7234;59.306;18.024;2023-05-02T16:27:10;1.10;;;0.77;;
14300;SDS011;7234;59.306;18.024;2023-05-02T16:29:38;1.40;;;0.65;;
14300;SDS011;7234;59.306;18.024;2023-05-02T16:32:06;1.85;;;0.50;;
14300;SDS011;7234;59.306;18.024;2023-05-02T16:34:34;0.75;;;0.50;;
14300;SDS011;7234;59.306;18.024;2023-05-02T16:37:05;0.50;;;0.50;;
14300;SDS011;7234;59.306;18.024;2023-05-02T16:39:33;0.43;;;0.43;;
14300;SDS011;7234;59.306;18.024;2023-05-02T16:42:06;2.80;;;0.60;;
14300;SDS011;7234;59.306;18.024;2023-05-02T16:44:34;2.03;;;0.60;;
14300;SDS011;7234;59.306;18.024;2023-05-02T16:47:03;0.40;;;0.40;;
14300;SDS011;7234;59.306;18.024;2023-05-02T16:49:31;3.40;;;0.73;;
14300;SDS011;7234;59.306;18.024;2023-05-02T16:52:01;0.60;;;0.60;;
14300;SDS011;7234;59.306;18.024;2023-05-02T16:54:32;0.60;;;0.47;;
14300;SDS011;7234;59.306;18.024;2023-05-02T16:57:00;1.08;;;0.40;;
14300;SDS011;7234;59.306;18.024;2023-05-02T16:59:43;1.17;;;0.60;;
14300;SDS011;7234;59.306;18.024;2023-05-02T17:02:13;2.28;;;0.60;;
14300;SDS011;7234;59.306;18.024;2023-05-02T17:04:46;1.85;;;0.60;;
14300;SDS011;7234;59.306;18.024;2023-05-02T17:07:14;0.75;;;0.50;;
14300;SDS011;7234;59.306;18.024;2023-05-02T17:09:43;1.27;;;0.60;;
14300;SDS011;7234;59.306;18.024;2023-05-02T17:12:11;1.23;;;0.60;;
14300;SDS011;7234;59.306;18.024;2023-05-02T17:19:49;1.73;;;0.50;;
14300;SDS011;7234;59.306;18.024;2023-05-02T17:22:20;1.13;;;0.68;;
14300;SDS011;7234;59.306;18.024;2023-05-02T17:37:50;1.50;;;0.60;;
14300;SDS011;7234;59.306;18.024;2023-05-02T17:40:20;1.50;;;0.70;;
14300;SDS011;7234;59.306;18.024;2023-05-02T17:42:48;1.83;;;0.70;;
14300;SDS011;7234;59.306;18.024;2023-05-02T17:45:21;1.30;;;0.70;;
14300;SDS011;7234;59.306;18.024;2023-05-02T17:47:49;0.93;;;0.80;;
14300;SDS011;7234;59.306;18.024;2023-05-02T17:50:18;1.88;;;0.90;;
14300;SDS011;7234;59.306;18.024;2023-05-02T17:52:48;1.75;;;0.80;;
14300;SDS011;7234;59.306;18.024;2023-05-02T17:55:19;2.38;;;1.38;;
14300;SDS011;7234;59.306;18.024;2023-05-02T17:57:47;1.00;;;0.80;;
14300;SDS011;7234;59.306;18.024;2023-05-02T18:00:18;2.25;;;0.80;;
14300;SDS011;7234;59.306;18.024;2023-05-02T18:02:48;3.97;;;0.95;;
14300;SDS011;7234;59.306;18.024;2023-05-02T18:05:16;1.20;;;0.73;;
14300;SDS011;7234;59.306;18.024;2023-05-02T18:07:44;0.93;;;0.60;;
14300;SDS011;7234;59.306;18.024;2023-05-02T18:10:16;1.10;;;0.80;;
14300;SDS011;7234;59.306;18.024;2023-05-02T18:12:43;3.42;;;0.77;;
14300;SDS011;7234;59.306;18.024;2023-05-02T18:15:13;2.85;;;0.90;;
14300;SDS011;7234;59.306;18.024;2023-05-02T18:17:41;3.85;;;0.90;;
14300;SDS011;7234;59.306;18.024;2023-05-02T18:20:09;2.30;;;0.90;;
14300;SDS011;7234;59.306;18.024;2023-05-02T18:22:40;4.32;;;0.80;;
14300;SDS011;7234;59.306;18.024;2023-05-02T18:27:36;1.50;;;1.00;;
14300;SDS011;7234;59.306;18.024;2023-05-02T18:30:15;4.20;;;1.20;;
14300;SDS011;7234;59.306;18.024;2023-05-02T18:32:51;6.53;;;1.00;;
14300;SDS011;7234;59.306;18.024;2023-05-02T18:35:21;1.70;;;1.00;;
14300;SDS011;7234;59.306;18.024;2023-05-02T18:37:50;2.25;;;1.08;;
14300;SDS011;7234;59.306;18.024;2023-05-02T18:40:20;2.75;;;1.08;;
14300;SDS011;7234;59.306;18.024;2023-05-02T18:51:03;2.78;;;1.10;;
14300;SDS011;7234;59.306;18.024;2023-05-02T18:53:32;1.30;;;0.82;;
14300;SDS011;7234;59.306;18.024;2023-05-02T18:56:00;3.75;;;1.10;;
14300;SDS011;7234;59.306;18.024;2023-05-02T18:58:31;3.17;;;1.10;;
14300;SDS011;7234;59.306;18.024;2023-05-02T19:00:59;1.73;;;1.10;;
14300;SDS011;7234;59.306;18.024;2023-05-02T19:03:27;3.30;;;1.20;;
14300;SDS011;7234;59.306;18.024;2023-05-02T19:05:57;3.90;;;1.02;;
14300;SDS011;7234;59.306;18.024;2023-05-02T19:08:28;2.53;;;0.97;;
14300;SDS011;7234;59.306;18.024;2023-05-02T19:10:55;2.17;;;0.80;;
14300;SDS011;7234;59.306;18.024;2023-05-02T19:13:23;4.53;;;1.05;;
14300;SDS011;7234;59.306;18.024;2023-05-02T19:15:52;1.03;;;0.70;;
14300;SDS011;7234;59.306;18.024;2023-05-02T19:18:20;3.47;;;0.87;;
14300;SDS011;7234;59.306;18.024;2023-05-02T19:20:48;0.77;;;0.70;;
14300;SDS011;7234;59.306;18.024;2023-05-02T19:23:21;0.80;;;0.70;;
14300;SDS011;7234;59.306;18.024;2023-05-02T19:25:51;2.63;;;0.90;;
14300;SDS011;7234;59.306;18.024;2023-05-02T19:28:27;1.13;;;0.80;;
14300;SDS011;7234;59.306;18.024;2023-05-02T19:30:57;2.10;;;1.08;;
14300;SDS011;7234;59.306;18.024;2023-05-02T19:33:30;1.33;;;1.10;;
14300;SDS011;7234;59.306;18.024;2023-05-02T19:35:59;4.13;;;1.30;;
14300;SDS011;7234;59.306;18.024;2023-05-02T19:38:30;2.87;;;0.90;;
14300;SDS011;7234;59.306;18.024;2023-05-02T19:40:59;2.03;;;0.97;;
14300;SDS011;7234;59.306;18.024;2023-05-02T19:43:30;2.13;;;1.00;;
14300;SDS011;7234;59.306;18.024;2023-05-02T19:46:07;3.27;;;1.10;;
14300;SDS011;7234;59.306;18.024;2023-05-02T19:48:48;2.03;;;1.27;;
14300;SDS011;7234;59.306;18.024;2023-05-02T19:51:18;1.23;;;0.83;;
14300;SDS011;7234;59.306;18.024;2023-05-02T19:53:51;1.40;;;0.70;;
14300;SDS011;7234;59.306;18.024;2023-05-02T19:56:23;4.27;;;0.87;;
14300;SDS011;7234;59.306;18.024;2023-05-02T19:58:53;2.47;;;0.90;;
14300;SDS011;7234;59.306;18.024;2023-05-02T20:01:25;3.73;;;1.10;;
14300;SDS011;7234;59.306;18.024;2023-05-02T20:03:56;1.60;;;0.97;;
14300;SDS011;7234;59.306;18.024;2023-05-02T20:06:31;2.47;;;0.93;;
14300;SDS011;7234;59.306;18.024;2023-05-02T20:09:03;1.55;;;1.10;;
14300;SDS011;7234;59.306;18.024;2023-05-02T20:11:34;1.58;;;0.90;;
14300;SDS011;7234;59.306;18.024;2023-05-02T20:14:02;1.30;;;1.07;;
14300;SDS011;7234;59.306;18.024;2023-05-02T20:16:32;2.22;;;0.52;;
14300;SDS011;7234;59.306;18.024;2023-05-02T20:18:59;3.43;;;0.60;;
14300;SDS011;7234;59.306;18.024;2023-05-02T20:21:29;2.00;;;0.73;;
14300;SDS011;7234;59.306;18.024;2023-05-02T20:24:07;3.70;;;1.37;;
14300;SDS011;7234;59.306;18.024;2023-05-02T20:26:34;3.00;;;1.57;;
14300;SDS011;7234;59.306;18.024;2023-05-02T20:29:04;3.47;;;1.00;;
14300;SDS011;7234;59.306;18.024;2023-05-02T20:31:34;2.23;;;0.83;;
14300;SDS011;7234;59.306;18.024;2023-05-02T20:34:04;1.43;;;1.00;;
14300;SDS011;7234;59.306;18.024;2023-05-02T20:36:32;1.73;;;0.80;;
14300;SDS011;7234;59.306;18.024;2023-05-02T20:39:03;1.07;;;0.90;;
14300;SDS011;7234;59.306;18.024;2023-05-02T20:41:33;4.50;;;1.00;;
